Terminal Aerodrome Forecast
Issued by NWS

Home | Current Version | Previous Version | Text Only | Print | Product List | Glossary On
Versions: 1 2 3 4 5 6 7 8 9 10 11 12 13 14
000
FTUS45 KREV 110500
TAFMMH
TAF
KMMH 110520Z 1106/1206 28009KT P6SM BKN100
     FM110800 30006KT P6SM SCT100 BKN180
     FM111600 12006KT P6SM FEW100 SCT180
     FM112300 26011G18KT P6SM SCT100 SCT180
     FM120500 30009KT P6SM SCT180
      AMD NOT SKED 1106/1114=

USA.gov is the U.S. government's official web portal to all federal, state and local government web resources and services.